Google Maps JavaScript API Example
Pilot Flight Report # 92682 Submitted by : AST003 on 2019-02-10
Date: 2019-02-10Aircraft: Boeing 787-3 Dreamliner
Flight No.: Not AvailableDistance (Nm): 520.58
Departure: VVTS - TansonnhatDestination: VTSP - Phuket International
 TimeFuelWeightSpeeds  
Out (Taxi)0246Z38668 lbs261973 lbs Flight RulesIFR
Off (Takeoff)0247Z 261704 lbs156 ktsFlight LevelFL330
On (Landing)0410Z 245365 lbs132 ktsVSTD-65 ft/min
In (Ramp)0414Z21699 lbs244999 lbs ZFW223298 lbs
Flight1.40  -  1:2316339 lbs  Pax0
Block1.47  -  1:2816969 lbs  Cargo0
Departure Weather100329Z 14004KT 17SM SKC 28/24 A2994
Destination WeatherVTSP 100414Z 00000KT 5SM FEW020 25/23 A2997
Flight Comments